Time;durP1;ratioP1;P1;durP2;ratioP2;P2;SDS_P1;SDS_P2;PMS_P1;PMS_P2;Temp;Humidity;BMP_temperature;BMP_pressure;BME280_temperature;BME280_humidity;BME280_pressure;Samples;Min_cycle;Max_cycle;Signal;HPM_P1;HPM_P2
2023/10/15 00:00:19;;;;;;;4.68;1.25;;;7.70;99.90;;;;;;5010680;28;20079;-63
2023/10/15 00:02:46;;;;;;;6.05;1.80;;;7.70;99.90;;;;;;5031317;28;20052;-63
2023/10/15 00:05:20;;;;;;;4.95;1.35;;;7.60;99.90;;;;;;5014144;28;20049;-62
2023/10/15 00:07:47;;;;;;;6.88;1.50;;;7.70;99.90;;;;;;5011055;28;20047;-63
2023/10/15 00:10:15;;;;;;;5.68;1.20;;;7.60;99.90;;;;;;5014980;28;20044;-63
2023/10/15 00:12:48;;;;;;;8.27;1.45;;;7.60;99.90;;;;;;5032978;28;20037;-63
2023/10/15 00:15:18;;;;;;;;;;;7.60;99.90;;;;;;5037112;28;20496;-63
2023/10/15 00:17:48;;;;;;;8.73;1.17;;;7.60;99.90;;;;;;5018846;28;19928;-62
2023/10/15 00:20:17;;;;;;;4.85;1.20;;;7.50;99.90;;;;;;5023525;28;20048;-63
2023/10/15 00:22:52;;;;;;;8.50;1.00;;;7.50;99.90;;;;;;5011037;28;20586;-63
2023/10/15 00:25:19;;;;;;;5.65;1.50;;;7.50;99.90;;;;;;5031199;28;20048;-63
2023/10/15 00:28:29;;;;;;;7.40;1.30;;;7.50;99.90;;;;;;5006163;28;20071;-62
2023/10/15 00:30:37;;;;;;;7.30;1.55;;;7.60;99.90;;;;;;5000550;28;20060;-63
2023/10/15 00:33:04;;;;;;;9.27;1.63;;;7.50;99.90;;;;;;5019010;28;20068;-63
2023/10/15 00:35:33;;;;;;;4.75;1.30;;;7.50;99.90;;;;;;5013960;28;20040;-62
2023/10/15 00:38:19;;;;;;;8.68;1.75;;;7.50;99.90;;;;;;5014736;28;20493;-62
2023/10/15 00:40:53;;;;;;;5.85;1.85;;;7.50;99.90;;;;;;5017593;28;20041;-62
2023/10/15 00:43:19;;;;;;;7.38;1.83;;;7.50;99.90;;;;;;5010211;28;20130;-62
2023/10/15 00:45:46;;;;;;;6.22;1.30;;;7.50;99.90;;;;;;5009593;28;20045;-62
2023/10/15 00:48:22;;;;;;;4.30;1.30;;;7.50;99.90;;;;;;4994866;28;20621;-63
2023/10/15 00:50:49;;;;;;;6.30;1.50;;;7.50;99.90;;;;;;5009165;28;20063;-63
2023/10/15 00:53:24;;;;;;;5.63;1.20;;;7.50;99.90;;;;;;5031205;28;20520;-63
2023/10/15 00:56:04;;;;;;;5.80;1.35;;;7.50;99.90;;;;;;5025749;28;20102;-63
2023/10/15 01:03:55;;;;;;;8.57;1.63;;;7.50;99.90;;;;;;5012531;28;20041;-62
2023/10/15 01:06:30;;;;;;;8.82;1.80;;;7.40;99.90;;;;;;5013463;28;20040;-63
2023/10/15 01:09:09;;;;;;;5.57;1.33;;;7.40;99.90;;;;;;5008821;28;20112;-63
2023/10/15 01:11:50;;;;;;;4.03;1.17;;;7.40;99.90;;;;;;5026562;28;20049;-62
2023/10/15 01:14:31;;;;;;;9.98;1.50;;;7.50;99.90;;;;;;5005250;28;20050;-62
2023/10/15 01:16:56;;;;;;;8.02;1.63;;;7.50;99.90;;;;;;5010942;28;20049;-63
2023/10/15 01:19:32;;;;;;;5.13;1.65;;;7.60;99.90;;;;;;5023656;28;20081;-63
2023/10/15 01:22:03;;;;;;;11.55;1.90;;;7.60;99.90;;;;;;5014081;28;20071;-62
2023/10/15 01:24:33;;;;;;;5.03;1.88;;;7.60;99.90;;;;;;5008448;28;20036;-63
2023/10/15 01:29:33;;;;;;;10.82;2.03;;;7.70;99.90;;;;;;5010888;28;20131;-63
2023/10/15 01:32:03;;;;;;;7.45;1.67;;;7.70;99.90;;;;;;5028752;28;20126;-62
2023/10/15 01:34:31;;;;;;;8.60;1.70;;;7.70;99.90;;;;;;4995662;28;20051;-62
2023/10/15 01:36:57;;;;;;;8.70;1.45;;;7.70;99.90;;;;;;5032803;28;20449;-62
2023/10/15 01:39:38;;;;;;;7.75;1.63;;;7.80;99.90;;;;;;5010026;28;20045;-62
2023/10/15 01:42:06;;;;;;;11.27;1.90;;;7.80;99.90;;;;;;5029149;28;20044;-62
2023/10/15 01:44:33;;;;;;;7.53;1.77;;;7.70;99.90;;;;;;5001803;28;20045;-62
2023/10/15 01:49:31;;;;;;;5.82;1.50;;;7.70;99.90;;;;;;5007530;28;20045;-62
2023/10/15 01:52:05;;;;;;;6.85;1.10;;;7.70;99.90;;;;;;5026362;28;20077;-62
2023/10/15 01:54:35;;;;;;;6.07;1.40;;;7.70;99.90;;;;;;5013986;28;20064;-62
2023/10/15 01:57:09;;;;;;;6.35;1.20;;;7.60;99.90;;;;;;4994481;28;20037;-62
2023/10/15 01:59:47;;;;;;;6.25;1.30;;;7.60;99.90;;;;;;5030856;28;20113;-62
2023/10/15 02:02:23;;;;;;;5.40;1.50;;;7.50;99.90;;;;;;5027224;28;20446;-62
2023/10/15 02:04:50;;;;;;;4.13;1.35;;;7.50;99.90;;;;;;5025040;28;20045;-63
2023/10/15 02:07:20;;;;;;;3.88;0.95;;;7.40;99.90;;;;;;5008404;28;20063;-62
2023/10/15 02:09:46;;;;;;;5.03;1.20;;;7.40;99.90;;;;;;5028422;28;20178;-62
2023/10/15 02:12:19;;;;;;;7.57;1.42;;;7.30;99.90;;;;;;5015228;28;20044;-62
2023/10/15 02:14:48;;;;;;;4.65;1.27;;;7.30;99.90;;;;;;5014628;28;20044;-62
2023/10/15 02:17:24;;;;;;;5.88;1.30;;;7.20;99.90;;;;;;5020961;28;20489;-62
2023/10/15 02:19:55;;;;;;;3.55;1.08;;;7.10;99.90;;;;;;5013313;28;20102;-62
2023/10/15 02:22:21;;;;;;;4.47;1.02;;;7.10;99.90;;;;;;5023444;28;20123;-62
2023/10/15 02:24:47;;;;;;;5.18;1.40;;;7.00;99.90;;;;;;5027684;28;20053;-62
2023/10/15 02:27:23;;;;;;;2.92;1.20;;;7.00;99.90;;;;;;5007873;28;20214;-62
2023/10/15 02:29:49;;;;;;;5.30;1.42;;;6.90;99.90;;;;;;5011063;28;20097;-63
2023/10/15 02:32:30;;;;;;;7.03;1.40;;;6.90;99.90;;;;;;5004829;28;20179;-63
2023/10/15 02:35:00;;;;;;;9.43;1.70;;;6.80;99.90;;;;;;5008104;28;20029;-63
2023/10/15 02:37:27;;;;;;;5.20;1.60;;;6.90;99.90;;;;;;4992708;28;20060;-62
2023/10/15 02:39:59;;;;;;;7.57;1.50;;;6.80;99.90;;;;;;5009143;28;20045;-63
2023/10/15 02:42:30;;;;;;;6.75;1.40;;;6.80;99.90;;;;;;5011893;28;20145;-62
2023/10/15 02:44:58;;;;;;;7.25;1.35;;;6.80;99.90;;;;;;5025549;28;20489;-62
2023/10/15 02:47:31;;;;;;;7.47;1.65;;;6.80;99.90;;;;;;5002968;28;20049;-62
2023/10/15 02:50:01;;;;;;;;;;;6.90;99.90;;;;;;5021123;28;20049;-63
2023/10/15 02:52:43;;;;;;;6.50;1.48;;;6.90;99.90;;;;;;4996015;28;20353;-63
2023/10/15 02:55:10;;;;;;;3.88;1.20;;;6.90;99.90;;;;;;5015413;28;20057;-62
2023/10/15 02:57:44;;;;;;;4.90;1.13;;;7.00;99.90;;;;;;5028312;28;20483;-63
2023/10/15 03:00:33;;;;;;;5.53;1.35;;;7.10;99.90;;;;;;5044923;28;20484;-62
2023/10/15 03:03:07;;;;;;;2.72;1.27;;;7.10;99.90;;;;;;5023273;28;20049;-63
2023/10/15 03:05:38;;;;;;;7.90;1.13;;;7.10;99.90;;;;;;5010477;28;20045;-63
2023/10/15 03:08:04;;;;;;;5.32;1.17;;;7.10;99.90;;;;;;5009812;28;20152;-63
2023/10/15 03:10:44;;;;;;;4.40;1.08;;;7.10;99.90;;;;;;5008690;28;20044;-63
2023/10/15 03:13:18;;;;;;;3.17;0.90;;;7.10;99.90;;;;;;5023092;28;20053;-62
2023/10/15 03:15:50;;;;;;;2.05;1.00;;;7.10;99.90;;;;;;5028784;28;20052;-62
2023/10/15 03:18:23;;;;;;;3.67;0.90;;;7.10;99.90;;;;;;5006596;28;20436;-63
2023/10/15 03:21:00;;;;;;;4.70;1.25;;;7.10;99.90;;;;;;5006317;28;20045;-62
2023/10/15 03:23:26;;;;;;;4.97;0.82;;;7.20;99.90;;;;;;5024025;28;20056;-62
2023/10/15 03:25:57;;;;;;;2.65;1.02;;;7.20;99.90;;;;;;5009344;28;20045;-62
2023/10/15 03:28:26;;;;;;;3.42;0.93;;;7.20;99.90;;;;;;5010354;28;20170;-62
2023/10/15 03:30:54;;;;;;;6.63;1.35;;;7.20;99.90;;;;;;5013940;28;20150;-62
2023/10/15 03:33:23;;;;;;;4.00;0.82;;;7.20;99.90;;;;;;5009954;28;20120;-62
2023/10/15 03:35:54;;;;;;;1.38;0.70;;;7.20;99.90;;;;;;5011752;28;24104;-62
2023/10/15 03:38:31;;;;;;;7.40;0.95;;;7.20;99.90;;;;;;5009986;28;20124;-62
2023/10/15 03:41:43;;;;;;;3.00;0.88;;;7.20;99.90;;;;;;5035431;28;20068;-62
2023/10/15 03:43:46;;;;;;;6.15;1.35;;;7.10;99.90;;;;;;4997538;28;20140;-62
2023/10/15 03:46:19;;;;;;;3.83;0.85;;;7.20;99.90;;;;;;5031384;28;20045;-63
2023/10/15 03:48:48;;;;;;;4.57;0.80;;;7.20;99.90;;;;;;5012477;28;20727;-62
2023/10/15 03:51:20;;;;;;;3.33;1.00;;;7.20;99.90;;;;;;5010448;28;20045;-62
2023/10/15 03:53:49;;;;;;;1.90;0.77;;;7.20;99.90;;;;;;5013383;28;20037;-62
2023/10/15 03:56:19;;;;;;;3.00;0.80;;;7.20;99.90;;;;;;5013329;28;20103;-62
2023/10/15 03:58:45;;;;;;;4.55;0.70;;;7.20;99.90;;;;;;5010773;28;20049;-62
2023/10/15 04:01:16;;;;;;;4.13;0.77;;;7.10;99.90;;;;;;5029746;28;20036;-62
2023/10/15 04:03:43;;;;;;;1.38;0.50;;;7.20;99.90;;;;;;5032565;28;24323;-63
2023/10/15 04:06:09;;;;;;;5.20;1.00;;;7.20;99.90;;;;;;5027399;28;20397;-62
2023/10/15 04:08:37;;;;;;;2.85;0.70;;;7.20;99.90;;;;;;5026791;28;20041;-62
2023/10/15 04:11:03;;;;;;;3.28;0.80;;;7.20;99.90;;;;;;5013092;28;20052;-62
2023/10/15 04:13:29;;;;;;;3.95;0.60;;;7.20;99.90;;;;;;5033300;28;20510;-63
2023/10/15 04:15:56;;;;;;;1.70;0.90;;;7.20;99.90;;;;;;5021586;28;20033;-62
2023/10/15 04:18:25;;;;;;;1.73;0.70;;;7.20;99.90;;;;;;5004582;28;20659;-63
2023/10/15 04:20:52;;;;;;;2.75;0.80;;;7.20;99.90;;;;;;5009757;28;20094;-62
2023/10/15 04:23:30;;;;;;;2.00;0.60;;;7.20;99.90;;;;;;5009563;28;20403;-62
2023/10/15 04:26:12;;;;;;;3.53;0.73;;;7.20;99.90;;;;;;5025306;28;20103;-62
2023/10/15 04:28:40;;;;;;;3.47;0.52;;;7.20;99.90;;;;;;4998354;28;20263;-62
2023/10/15 04:31:17;;;;;;;2.60;0.60;;;7.10;99.90;;;;;;5030280;28;20048;-62
2023/10/15 04:33:43;;;;;;;1.85;0.73;;;7.10;99.90;;;;;;5015231;28;20048;-62
2023/10/15 04:36:09;;;;;;;1.83;0.60;;;7.10;99.90;;;;;;4995383;28;20032;-62
2023/10/15 04:38:38;;;;;;;2.20;0.80;;;7.10;99.90;;;;;;5023273;28;20044;-62
2023/10/15 04:41:04;;;;;;;2.90;0.60;;;7.10;99.90;;;;;;5018542;28;20415;-62
2023/10/15 04:43:40;;;;;;;4.53;0.95;;;7.00;99.90;;;;;;5037483;28;20036;-62
2023/10/15 04:46:17;;;;;;;2.67;0.70;;;7.10;99.90;;;;;;5020096;28;20056;-61
2023/10/15 04:48:45;;;;;;;2.65;0.80;;;7.00;99.90;;;;;;5015413;28;20059;-62
2023/10/15 04:51:14;;;;;;;4.53;1.08;;;7.00;99.90;;;;;;5019526;28;20045;-63
2023/10/15 04:53:50;;;;;;;4.93;0.70;;;7.00;99.90;;;;;;5019155;28;20142;-62
2023/10/15 04:56:16;;;;;;;5.15;1.13;;;7.00;99.90;;;;;;5035097;28;20032;-62
2023/10/15 04:58:42;;;;;;;3.60;0.98;;;7.00;99.90;;;;;;5038920;28;20048;-62
2023/10/15 05:01:08;;;;;;;3.08;1.08;;;7.00;99.90;;;;;;5036513;28;20041;-62
2023/10/15 05:03:36;;;;;;;4.78;1.00;;;7.00;99.90;;;;;;5032746;28;20045;-62
2023/10/15 05:06:03;;;;;;;5.05;1.08;;;7.00;99.90;;;;;;5021629;28;20037;-62
2023/10/15 05:08:30;;;;;;;3.13;0.90;;;7.00;99.90;;;;;;5015138;28;22847;-61
2023/10/15 05:10:56;;;;;;;7.20;0.90;;;7.00;99.90;;;;;;5017027;28;20076;-62
2023/10/15 05:13:24;;;;;;;6.40;0.80;;;7.00;99.90;;;;;;5036103;28;20039;-62
2023/10/15 05:15:50;;;;;;;4.93;0.88;;;7.00;99.90;;;;;;5027556;28;20083;-62
2023/10/15 05:18:18;;;;;;;3.33;0.75;;;6.90;99.90;;;;;;5027424;28;20037;-62
2023/10/15 05:20:50;;;;;;;3.22;1.02;;;6.90;99.90;;;;;;5043199;28;20047;-62
2023/10/15 05:23:17;;;;;;;6.18;1.20;;;6.90;99.90;;;;;;5043960;28;20389;-63
2023/10/15 05:25:42;;;;;;;3.97;0.82;;;6.80;99.90;;;;;;5024988;28;20148;-62
2023/10/15 05:28:08;;;;;;;4.25;1.00;;;6.70;99.90;;;;;;5010825;28;20123;-62
2023/10/15 05:30:34;;;;;;;3.55;0.70;;;6.70;99.90;;;;;;5026166;28;20458;-62
2023/10/15 05:33:01;;;;;;;3.67;0.98;;;6.70;99.90;;;;;;5034018;28;20115;-62
2023/10/15 05:35:30;;;;;;;7.63;0.90;;;6.70;99.90;;;;;;5022496;28;20153;-62
2023/10/15 05:37:55;;;;;;;2.15;0.77;;;6.70;99.90;;;;;;5035375;28;20033;-62
2023/10/15 05:40:24;;;;;;;5.10;0.95;;;6.60;99.90;;;;;;5025641;28;20037;-62
2023/10/15 05:42:51;;;;;;;4.50;1.10;;;6.70;99.90;;;;;;5024643;28;20034;-63
2023/10/15 05:45:18;;;;;;;5.22;0.80;;;6.70;99.90;;;;;;5016795;28;20500;-62
2023/10/15 05:47:44;;;;;;;9.40;1.45;;;6.70;99.90;;;;;;5014444;28;20683;-62
2023/10/15 05:50:12;;;;;;;4.53;1.00;;;6.70;99.90;;;;;;5016918;28;20032;-62
2023/10/15 05:52:38;;;;;;;4.18;1.13;;;6.60;99.90;;;;;;5013565;28;20077;-62
2023/10/15 05:55:06;;;;;;;5.00;0.93;;;6.50;99.90;;;;;;5034644;28;20388;-63
2023/10/15 05:57:33;;;;;;;3.20;0.70;;;6.50;99.90;;;;;;5017978;28;20045;-62
2023/10/15 06:00:17;;;;;;;3.75;0.90;;;6.50;99.90;;;;;;5019755;28;20049;-62
2023/10/15 06:02:56;;;;;;;5.57;1.00;;;6.40;99.90;;;;;;5002928;28;20522;-61
2023/10/15 06:05:22;;;;;;;2.67;0.80;;;6.40;99.90;;;;;;5012598;28;20692;-62
2023/10/15 06:07:48;;;;;;;5.07;0.95;;;6.40;99.90;;;;;;5029514;28;20046;-62
2023/10/15 06:10:15;;;;;;;3.25;0.82;;;6.40;99.90;;;;;;5017349;28;20099;-62
2023/10/15 06:12:41;;;;;;;9.30;0.90;;;6.40;99.90;;;;;;5014545;28;20137;-63
2023/10/15 06:15:08;;;;;;;5.60;1.10;;;6.40;99.90;;;;;;5031643;28;20049;-62
2023/10/15 06:17:35;;;;;;;7.80;1.33;;;6.40;99.90;;;;;;5031350;28;20045;-62
2023/10/15 06:20:12;;;;;;;3.13;0.88;;;6.40;99.90;;;;;;5020312;28;20044;-61
2023/10/15 06:22:42;;;;;;;3.88;0.70;;;6.40;99.90;;;;;;5023928;28;20654;-63
2023/10/15 06:25:09;;;;;;;3.20;1.02;;;6.40;99.90;;;;;;5017215;28;20072;-62
2023/10/15 06:27:35;;;;;;;6.10;1.08;;;6.40;99.90;;;;;;5023124;28;20049;-62
2023/10/15 06:30:06;;;;;;;4.53;1.15;;;6.40;99.90;;;;;;5006771;28;20080;-62
2023/10/15 06:32:32;;;;;;;5.72;1.27;;;6.50;99.90;;;;;;5023444;28;20140;-62
2023/10/15 06:34:58;;;;;;;4.60;1.20;;;6.50;99.90;;;;;;5024271;28;20109;-62
2023/10/15 06:37:24;;;;;;;5.43;0.88;;;6.50;99.90;;;;;;5026298;28;20124;-62
2023/10/15 06:39:50;;;;;;;5.70;1.10;;;6.50;99.90;;;;;;5039158;28;20128;-63
2023/10/15 06:42:15;;;;;;;8.88;1.10;;;6.60;99.90;;;;;;5034758;28;20068;-62
2023/10/15 06:44:41;;;;;;;6.00;0.73;;;6.60;99.90;;;;;;5023912;28;20168;-62
2023/10/15 06:47:07;;;;;;;8.73;1.13;;;6.60;99.90;;;;;;5023189;28;20049;-62
2023/10/15 06:49:33;;;;;;;3.70;0.85;;;6.60;99.90;;;;;;5024688;28;20389;-62
2023/10/15 06:51:58;;;;;;;4.80;1.33;;;6.60;99.90;;;;;;5016433;28;20049;-62
2023/10/15 06:54:26;;;;;;;5.05;1.48;;;6.60;99.90;;;;;;5001169;28;20115;-62
2023/10/15 06:56:51;;;;;;;6.13;1.45;;;6.60;99.90;;;;;;5011989;28;20038;-62
2023/10/15 06:59:17;;;;;;;2.47;0.75;;;6.70;99.90;;;;;;5016688;28;20195;-62
2023/10/15 07:01:43;;;;;;;8.05;1.40;;;6.70;99.90;;;;;;5016456;28;20416;-62
2023/10/15 07:04:11;;;;;;;6.18;1.02;;;6.80;99.90;;;;;;5026225;28;20091;-62
2023/10/15 07:06:39;;;;;;;5.65;1.50;;;6.80;99.90;;;;;;5012620;28;20534;-63
2023/10/15 07:09:06;;;;;;;4.38;1.05;;;6.80;99.90;;;;;;5011117;28;20491;-62
2023/10/15 07:11:31;;;;;;;5.82;1.02;;;6.80;99.90;;;;;;5014690;28;20049;-62
2023/10/15 07:13:57;;;;;;;2.95;0.90;;;6.80;99.90;;;;;;5009512;28;20488;-62
2023/10/15 07:16:24;;;;;;;2.80;1.00;;;6.80;99.90;;;;;;5028359;28;20463;-62
2023/10/15 07:18:50;;;;;;;2.65;0.68;;;6.90;99.90;;;;;;5006494;28;20087;-62
2023/10/15 07:21:18;;;;;;;3.70;0.90;;;6.90;99.90;;;;;;4994302;28;20048;-62
2023/10/15 07:23:43;;;;;;;6.78;1.27;;;6.90;99.90;;;;;;5007283;28;20615;-61
2023/10/15 07:26:09;;;;;;;2.70;0.90;;;6.90;99.90;;;;;;5008463;28;20427;-63
2023/10/15 07:28:35;;;;;;;4.82;0.70;;;6.90;99.90;;;;;;5004613;28;20037;-62
2023/10/15 07:31:01;;;;;;;2.90;0.80;;;6.90;99.90;;;;;;5007151;28;20163;-62
2023/10/15 07:33:27;;;;;;;2.90;0.80;;;6.90;99.90;;;;;;5015613;28;20049;-62
2023/10/15 07:35:52;;;;;;;2.65;0.65;;;6.90;99.90;;;;;;5021995;28;20049;-62
2023/10/15 07:38:18;;;;;;;2.30;0.80;;;7.00;99.90;;;;;;5045189;28;20040;-62
2023/10/15 07:40:44;;;;;;;3.08;0.70;;;6.90;99.90;;;;;;5045211;28;20068;-62
2023/10/15 07:43:11;;;;;;;4.50;1.02;;;6.90;99.90;;;;;;5027435;28;20052;-63
2023/10/15 07:45:38;;;;;;;5.30;1.45;;;6.90;99.90;;;;;;5016967;28;20119;-62
2023/10/15 07:48:05;;;;;;;4.75;1.35;;;6.90;99.90;;;;;;5037024;28;20084;-63
2023/10/15 07:50:34;;;;;;;4.25;0.80;;;6.90;99.90;;;;;;5026138;28;20068;-63
2023/10/15 07:52:59;;;;;;;2.63;0.90;;;6.90;99.90;;;;;;5036440;28;20072;-63
2023/10/15 07:55:26;;;;;;;4.35;1.20;;;7.00;99.90;;;;;;5035885;28;20033;-63
2023/10/15 07:57:52;;;;;;;3.90;1.48;;;7.00;99.90;;;;;;5024949;28;20642;-63
2023/10/15 08:00:33;;;;;;;4.28;0.90;;;7.00;99.90;;;;;;4992797;28;20041;-62
2023/10/15 08:02:59;;;;;;;3.78;1.20;;;7.10;99.90;;;;;;5038402;28;20071;-62
2023/10/15 08:05:25;;;;;;;4.85;1.10;;;7.10;99.90;;;;;;5036866;28;20041;-62
2023/10/15 08:07:52;;;;;;;6.22;1.10;;;7.10;99.90;;;;;;5025739;28;20049;-62
2023/10/15 08:10:24;;;;;;;3.80;1.05;;;7.10;99.90;;;;;;5017298;28;20045;-62
2023/10/15 08:12:51;;;;;;;4.22;1.30;;;7.10;99.90;;;;;;5026104;28;20056;-62
2023/10/15 08:15:17;;;;;;;8.82;1.20;;;7.10;99.90;;;;;;5025578;28;20041;-62
2023/10/15 08:17:43;;;;;;;9.20;1.23;;;7.10;99.90;;;;;;5026639;28;20388;-62
2023/10/15 08:20:09;;;;;;;4.43;1.02;;;7.20;99.90;;;;;;5037601;28;20039;-63
2023/10/15 08:22:44;;;;;;;6.97;1.10;;;7.30;99.90;;;;;;5027200;28;20049;-62
2023/10/15 08:25:13;;;;;;;7.05;1.30;;;7.50;99.90;;;;;;5026469;28;20053;-62
2023/10/15 08:27:46;;;;;;;3.90;1.05;;;7.70;99.90;;;;;;5026271;28;20048;-62
2023/10/15 08:30:13;;;;;;;9.82;1.25;;;7.90;99.90;;;;;;5023022;28;20115;-62
2023/10/15 08:32:46;;;;;;;3.40;1.05;;;7.90;99.90;;;;;;5020210;28;20385;-62
2023/10/15 08:35:15;;;;;;;6.68;1.70;;;8.00;99.90;;;;;;5022704;28;20077;-63
2023/10/15 08:37:42;;;;;;;4.20;1.15;;;8.00;99.90;;;;;;5005972;28;20514;-62
2023/10/15 08:40:15;;;;;;;8.75;1.00;;;8.00;99.90;;;;;;5023390;28;20480;-62
2023/10/15 08:42:50;;;;;;;;;;;8.00;99.90;;;;;;5037697;28;20053;-62
2023/10/15 08:45:21;;;;;;;6.57;1.67;;;8.00;99.90;;;;;;5022463;28;19917;-62
2023/10/15 08:47:48;;;;;;;3.55;1.20;;;8.00;99.90;;;;;;5021144;28;20041;-62
2023/10/15 08:50:16;;;;;;;3.17;0.80;;;8.00;99.90;;;;;;5024044;28;20089;-62
2023/10/15 08:52:44;;;;;;;7.68;1.20;;;7.90;99.90;;;;;;5022333;28;20045;-62
2023/10/15 08:55:11;;;;;;;5.22;1.10;;;7.90;99.90;;;;;;5036835;28;20076;-62
2023/10/15 08:57:37;;;;;;;5.68;0.90;;;7.80;99.90;;;;;;5023119;28;20056;-63
2023/10/15 09:00:05;;;;;;;4.40;1.23;;;7.80;99.90;;;;;;5038388;28;20845;-62
2023/10/15 09:02:31;;;;;;;6.30;1.20;;;7.90;99.90;;;;;;5021215;28;20049;-62
2023/10/15 09:04:57;;;;;;;4.97;1.17;;;7.90;99.90;;;;;;5039232;28;20606;-62
2023/10/15 09:07:24;;;;;;;4.63;1.05;;;7.90;99.90;;;;;;5038493;28;20080;-62
2023/10/15 09:09:51;;;;;;;6.00;1.38;;;8.00;99.90;;;;;;5015061;28;20566;-62
2023/10/15 09:12:18;;;;;;;6.43;1.25;;;8.10;99.90;;;;;;5004823;28;20049;-63
2023/10/15 09:14:45;;;;;;;6.30;1.10;;;8.20;99.90;;;;;;5012404;28;20041;-63
2023/10/15 09:17:15;;;;;;;5.85;1.52;;;8.40;99.90;;;;;;5037882;28;20564;-62
2023/10/15 09:19:49;;;;;;;8.15;1.20;;;8.70;99.90;;;;;;5024626;28;20120;-62
2023/10/15 09:22:14;;;;;;;7.75;1.48;;;9.00;99.90;;;;;;5022217;28;20439;-62
2023/10/15 09:24:46;;;;;;;6.38;1.38;;;9.20;99.90;;;;;;5004699;28;20080;-62
2023/10/15 09:27:13;;;;;;;5.93;1.25;;;9.40;99.90;;;;;;5021012;28;20132;-63
2023/10/15 09:29:40;;;;;;;9.43;1.50;;;9.50;99.90;;;;;;5021978;28;20045;-62
2023/10/15 09:32:06;;;;;;;5.55;1.20;;;9.60;99.90;;;;;;5015251;28;20400;-62
2023/10/15 09:34:37;;;;;;;3.42;0.80;;;9.70;99.90;;;;;;5022346;28;20084;-63
2023/10/15 09:37:05;;;;;;;4.90;0.80;;;9.80;99.90;;;;;;5016786;28;20041;-62
2023/10/15 09:39:31;;;;;;;6.97;1.17;;;9.90;99.90;;;;;;5020988;28;20493;-62
2023/10/15 09:41:57;;;;;;;5.80;1.10;;;10.10;99.90;;;;;;5017483;28;20067;-63
2023/10/15 09:44:24;;;;;;;7.53;1.10;;;10.20;99.90;;;;;;5016499;28;20044;-63
2023/10/15 09:46:50;;;;;;;6.90;1.10;;;10.30;99.90;;;;;;5038335;28;20596;-62
2023/10/15 09:49:18;;;;;;;4.00;1.15;;;10.50;99.90;;;;;;4999367;28;20037;-62
2023/10/15 09:51:47;;;;;;;4.32;1.27;;;10.60;99.90;;;;;;5026823;28;20078;-62
2023/10/15 09:54:14;;;;;;;4.15;1.15;;;10.70;99.90;;;;;;5032763;28;20045;-62
2023/10/15 09:56:45;;;;;;;3.35;1.00;;;10.90;99.90;;;;;;5022144;28;20045;-62
2023/10/15 09:59:11;;;;;;;6.28;1.00;;;11.00;99.90;;;;;;5022811;28;20041;-63
2023/10/15 10:01:44;;;;;;;5.85;0.95;;;11.30;99.90;;;;;;5037417;28;20048;-62
2023/10/15 10:04:48;;;;;;;4.35;1.00;;;11.40;99.90;;;;;;5037539;28;20069;-63
2023/10/15 10:07:31;;;;;;;5.50;1.40;;;11.60;99.90;;;;;;5023303;28;20127;-62
2023/10/15 10:10:32;;;;;;;7.40;1.55;;;11.80;99.90;;;;;;5025063;28;20048;-63
2023/10/15 10:13:25;;;;;;;8.02;1.40;;;11.90;99.90;;;;;;5024505;28;20045;-63
2023/10/15 10:15:54;;;;;;;7.40;1.40;;;11.80;99.90;;;;;;5034663;28;20048;-62
2023/10/15 10:18:24;;;;;;;7.70;1.20;;;11.60;99.90;;;;;;5024789;28;20041;-63
2023/10/15 10:20:50;;;;;;;3.05;0.68;;;11.50;99.90;;;;;;5024432;28;20033;-63
2023/10/15 10:23:17;;;;;;;5.28;1.00;;;11.40;99.90;;;;;;5035166;28;20052;-63
2023/10/15 10:25:48;;;;;;;3.92;0.98;;;11.40;99.90;;;;;;5024793;28;20043;-63
2023/10/15 10:28:15;;;;;;;3.58;0.77;;;11.50;99.90;;;;;;5008606;28;20428;-63
2023/10/15 10:30:55;;;;;;;3.67;0.93;;;11.60;99.90;;;;;;5022387;28;20041;-63
2023/10/15 10:33:46;;;;;;;5.40;0.90;;;11.80;99.90;;;;;;5022801;28;20168;-63
2023/10/15 10:36:17;;;;;;;4.65;0.90;;;12.00;99.90;;;;;;5025267;28;20045;-63
2023/10/15 10:39:15;;;;;;;3.08;0.82;;;12.20;99.90;;;;;;5024554;28;20117;-63
2023/10/15 10:41:44;;;;;;;3.58;1.02;;;12.50;99.90;;;;;;5031261;28;20050;-63
2023/10/15 10:44:34;;;;;;;5.85;1.33;;;12.80;99.90;;;;;;5041045;28;20099;-63
2023/10/15 10:47:23;;;;;;;9.35;1.38;;;12.80;99.90;;;;;;5025356;28;20034;-63
2023/10/15 10:49:55;;;;;;;8.82;1.27;;;12.60;99.90;;;;;;5026658;28;20077;-62
2023/10/15 10:52:29;;;;;;;6.63;1.30;;;12.30;99.90;;;;;;5024372;28;20041;-62
2023/10/15 10:55:16;;;;;;;4.70;1.13;;;12.00;99.90;;;;;;5039720;28;20036;-63
2023/10/15 10:57:42;;;;;;;4.65;0.98;;;11.80;99.90;;;;;;5024076;28;20381;-63
2023/10/15 11:00:12;;;;;;;2.67;0.95;;;11.60;99.90;;;;;;5018590;28;20041;-63
2023/10/15 11:02:38;;;;;;;4.03;1.00;;;11.40;99.90;;;;;;5023334;28;20455;-63
2023/10/15 11:05:06;;;;;;;3.42;0.95;;;11.20;99.90;;;;;;5025441;28;20059;-63
2023/10/15 11:07:36;;;;;;;6.43;1.10;;;11.20;99.90;;;;;;5034523;28;20045;-63
2023/10/15 11:10:05;;;;;;;3.38;0.93;;;11.30;99.90;;;;;;5022322;28;20049;-63
2023/10/15 11:12:31;;;;;;;5.15;0.82;;;11.40;99.90;;;;;;5023240;28;20049;-63
2023/10/15 11:14:57;;;;;;;5.55;1.08;;;11.70;99.90;;;;;;5025262;28;20480;-63
2023/10/15 11:17:23;;;;;;;8.02;1.63;;;12.10;99.90;;;;;;5022606;28;20172;-63
2023/10/15 11:19:49;;;;;;;5.70;1.38;;;12.40;99.90;;;;;;5025171;28;20041;-62
2023/10/15 11:22:15;;;;;;;4.82;1.25;;;12.60;99.90;;;;;;5023141;28;20049;-63
2023/10/15 11:24:43;;;;;;;5.93;1.48;;;12.90;99.90;;;;;;5023279;28;20029;-63
2023/10/15 11:27:11;;;;;;;5.47;1.17;;;13.20;99.90;;;;;;5008280;28;20140;-63
2023/10/15 11:29:38;;;;;;;5.60;1.15;;;13.50;99.90;;;;;;5025690;28;20042;-64
2023/10/15 11:32:11;;;;;;;7.65;1.48;;;13.70;99.90;;;;;;5023300;28;20149;-63
2023/10/15 11:34:39;;;;;;;7.70;1.25;;;13.70;99.90;;;;;;5024501;28;20053;-63
2023/10/15 11:37:09;;;;;;;6.00;1.20;;;13.40;99.90;;;;;;5021783;28;20483;-63
2023/10/15 11:39:38;;;;;;;5.80;1.42;;;13.20;99.90;;;;;;5024907;28;20041;-62
2023/10/15 11:42:06;;;;;;;8.55;1.52;;;12.90;99.90;;;;;;5022877;28;20050;-63
2023/10/15 11:44:32;;;;;;;7.30;1.33;;;12.80;99.90;;;;;;5023401;28;20118;-63
2023/10/15 11:47:08;;;;;;;3.92;1.02;;;12.80;99.90;;;;;;5022344;28;20045;-63
2023/10/15 11:49:38;;;;;;;7.15;1.40;;;12.70;99.90;;;;;;5008464;28;20128;-63
2023/10/15 11:52:11;;;;;;;6.50;1.20;;;12.70;99.90;;;;;;5038706;28;20128;-63
2023/10/15 11:54:43;;;;;;;6.72;1.10;;;12.90;99.90;;;;;;5034616;28;20108;-63
2023/10/15 11:57:16;;;;;;;8.97;1.40;;;12.90;99.90;;;;;;5035213;28;20051;-63
2023/10/15 11:59:43;;;;;;;6.25;1.08;;;13.00;99.90;;;;;;5025821;28;20033;-63
2023/10/15 12:02:11;;;;;;;3.90;1.20;;;13.20;99.90;;;;;;5022338;28;20076;-63
2023/10/15 12:04:40;;;;;;;6.85;1.15;;;13.50;99.90;;;;;;5040462;28;20041;-63
2023/10/15 12:07:15;;;;;;;9.40;1.65;;;13.70;99.90;;;;;;5005417;28;20043;-63
2023/10/15 12:09:44;;;;;;;7.15;1.23;;;13.70;99.90;;;;;;5023736;28;20072;-63
2023/10/15 12:12:11;;;;;;;5.60;1.30;;;13.90;99.90;;;;;;5022154;28;20047;-63
2023/10/15 12:14:37;;;;;;;10.18;1.77;;;14.10;99.90;;;;;;5029912;28;20608;-63
2023/10/15 12:17:04;;;;;;;6.07;1.48;;;14.20;99.90;;;;;;5022882;28;20398;-63
2023/10/15 12:19:30;;;;;;;6.47;1.40;;;14.20;99.90;;;;;;5022254;28;20045;-63
2023/10/15 12:21:58;;;;;;;4.32;1.30;;;14.20;99.90;;;;;;5021638;28;20045;-63
2023/10/15 12:24:27;;;;;;;5.85;1.33;;;14.20;99.90;;;;;;5021439;28;20053;-63
2023/10/15 12:26:53;;;;;;;6.72;1.23;;;14.30;99.90;;;;;;5021794;28;20045;-63
2023/10/15 12:29:28;;;;;;;4.80;1.27;;;14.40;99.70;;;;;;5000504;28;20052;-63
2023/10/15 12:31:57;;;;;;;4.43;1.52;;;14.50;99.40;;;;;;5021866;28;20519;-63
2023/10/15 12:34:24;;;;;;;4.22;1.30;;;14.60;99.00;;;;;;5029200;28;20049;-63
2023/10/15 12:36:52;;;;;;;11.10;2.45;;;14.70;99.10;;;;;;5020731;28;20045;-63
2023/10/15 12:39:21;;;;;;;4.53;1.35;;;14.70;98.40;;;;;;5022239;28;20047;-63
2023/10/15 12:41:48;;;;;;;6.22;1.20;;;14.50;97.40;;;;;;5022849;28;20064;-63
2023/10/15 12:44:14;;;;;;;4.03;0.90;;;14.20;96.90;;;;;;5033432;28;20115;-63
2023/10/15 12:46:40;;;;;;;3.50;0.80;;;14.10;97.10;;;;;;5021743;28;20435;-63
2023/10/15 12:49:08;;;;;;;2.50;0.77;;;14.10;96.50;;;;;;5004300;28;20076;-63
2023/10/15 12:51:34;;;;;;;3.17;0.60;;;13.90;95.40;;;;;;5019499;28;20046;-63
2023/10/15 12:54:01;;;;;;;1.80;0.65;;;13.60;94.80;;;;;;5028976;28;20041;-63
2023/10/15 12:56:30;;;;;;;3.55;0.98;;;13.40;94.80;;;;;;5020773;28;20041;-64
2023/10/15 12:58:57;;;;;;;3.45;1.00;;;13.30;95.30;;;;;;5005404;28;20037;-63
2023/10/15 13:01:23;;;;;;;4.63;1.20;;;13.20;95.40;;;;;;5019441;28;20139;-64
2023/10/15 13:03:49;;;;;;;3.58;1.15;;;13.00;95.30;;;;;;5021264;28;20090;-63
2023/10/15 13:06:19;;;;;;;8.52;1.20;;;12.90;95.90;;;;;;5021901;28;20044;-63
2023/10/15 13:08:46;;;;;;;4.43;1.10;;;12.80;96.60;;;;;;5012986;28;20084;-63
2023/10/15 13:11:12;;;;;;;5.82;1.13;;;12.70;97.10;;;;;;5024119;28;20081;-63
2023/10/15 13:13:38;;;;;;;5.97;1.35;;;12.60;97.80;;;;;;5021133;28;20468;-62
2023/10/15 13:16:04;;;;;;;5.15;1.10;;;12.60;98.60;;;;;;5027104;28;20045;-63
2023/10/15 13:18:35;;;;;;;7.75;1.70;;;12.70;98.80;;;;;;5021024;28;20424;-63